Senkomamaru — JD2515 — position and weather

sailwx.info

Track history (hours):
 
Tides and Currents Weather Stations Pressure Air Temp Water Temp Dewpoint Dewpoint Depression Visibility Wind Speed Wind Dir Waves Ship Positions

Senkomamaru

Last reported at 2017-Nov-19 22:38 UTC. Time now 2017-Nov-20 02:11 UTC.
Position N 35°30' E 139°59'.

Length 76 m; draft 4.2 m.

MMSI: 431000376.

Date/timePositionNaut miles runAvg speedWind from/ knotsBaromVisibWave heightAir tempDewpointWater temp
2017-Nov-19 22:38N 35°30' E 139°59'0 1.6
2017-Nov-19 22:19N 35°30' E 139°59'3 0.1
2017-Nov-18 23:11N 35°27' E 139°60'3 0.6
2017-Nov-18 18:23N 35°29' E 139°56'411.0
2017-Nov-18 18:00N 35°28' E 139°51'612.3
2017-Nov-18 17:30N 35°24' E 139°46'611.8
2017-Nov-18 17:00N 35°18' E 139°45'611.9
2017-Nov-18 16:30N 35°12' E 139°47'611.4
2017-Nov-18 16:00N 35°07' E 139°46'510.8
2017-Nov-18 15:30N 35°02' E 139°42'611.1
2017-Nov-18 15:00N 34°59' E 139°36'  
2017-Nov-11 22:53N 35°30' E 139°59'0 0.1
2017-Nov-11 21:13N 35°30' E 139°58'0 0.0
2017-Nov-11 20:58N 35°30' E 139°58'0 0.1
2017-Nov-11 20:28N 35°30' E 139°58'0 0.0
2017-Nov-11 15:37N 35°30' E 139°58'0 0.0
2017-Nov-11 15:13N 35°30' E 139°58'0 0.0
2017-Nov-11 14:46N 35°30' E 139°58'0 0.0
2017-Nov-11 14:25N 35°30' E 139°58'0 0.0
2017-Nov-11 13:58N 35°30' E 139°58'0 0.0
2017-Nov-11 13:17N 35°30' E 139°58'3 5.9
2017-Nov-11 12:50N 35°29' E 139°55'411.8
2017-Nov-11 12:28N 35°27' E 139°50'612.1
2017-Nov-11 12:00N 35°23' E 139°46'611.4
2017-Nov-11 11:30N 35°18' E 139°45'611.5
2017-Nov-11 11:00N 35°12' E 139°47'611.5
2017-Nov-11 10:30N 35°06' E 139°46'511.0
2017-Nov-11 10:00N 35°02' E 139°41'510.9
2017-Nov-11 09:30N 34°59' E 139°36'  
Track history (hours):
 
Tides and Currents Weather Stations Pressure Air Temp Water Temp Dewpoint Dewpoint Depression Visibility Wind Speed Wind Dir Waves Ship Positions

Senkomamaru

Last reported at 2017-Nov-19 22:38 UTC. Time now 2017-Nov-20 02:11 UTC.
Position N 35°30' E 139°59'.

Length 76 m; draft 4.2 m.

MMSI: 431000376.

Date/timePositionNaut miles runAvg speedWind from/ knotsBaromVisibWave heightAir tempDewpointWater temp
2017-Nov-19 22:38N 35°30' E 139°59'0 1.6
2017-Nov-19 22:19N 35°30' E 139°59'3 0.1
2017-Nov-18 23:11N 35°27' E 139°60'3 0.6
2017-Nov-18 18:23N 35°29' E 139°56'411.0
2017-Nov-18 18:00N 35°28' E 139°51'612.3
2017-Nov-18 17:30N 35°24' E 139°46'611.8
2017-Nov-18 17:00N 35°18' E 139°45'611.9
2017-Nov-18 16:30N 35°12' E 139°47'611.4
2017-Nov-18 16:00N 35°07' E 139°46'510.8
2017-Nov-18 15:30N 35°02' E 139°42'611.1
2017-Nov-18 15:00N 34°59' E 139°36'  
2017-Nov-11 22:53N 35°30' E 139°59'0 0.1
2017-Nov-11 21:13N 35°30' E 139°58'0 0.0
2017-Nov-11 20:58N 35°30' E 139°58'0 0.1
2017-Nov-11 20:28N 35°30' E 139°58'0 0.0
2017-Nov-11 15:37N 35°30' E 139°58'0 0.0
2017-Nov-11 15:13N 35°30' E 139°58'0 0.0
2017-Nov-11 14:46N 35°30' E 139°58'0 0.0
2017-Nov-11 14:25N 35°30' E 139°58'0 0.0
2017-Nov-11 13:58N 35°30' E 139°58'0 0.0
2017-Nov-11 13:17N 35°30' E 139°58'3 5.9
2017-Nov-11 12:50N 35°29' E 139°55'411.8
2017-Nov-11 12:28N 35°27' E 139°50'612.1
2017-Nov-11 12:00N 35°23' E 139°46'611.4
2017-Nov-11 11:30N 35°18' E 139°45'611.5
2017-Nov-11 11:00N 35°12' E 139°47'611.5
2017-Nov-11 10:30N 35°06' E 139°46'511.0
2017-Nov-11 10:00N 35°02' E 139°41'510.9
2017-Nov-11 09:30N 34°59' E 139°36'  

Dump ship's entire track history